createdAt,value
2019-03-03T00:00:58.517Z,6.38
2019-03-03T00:01:58.921Z,6.43
2019-03-03T00:03:00.328Z,6.36
2019-03-03T00:04:01.016Z,6.43
2019-03-03T00:05:01.715Z,6.47
2019-03-03T00:06:02.359Z,6.44
2019-03-03T00:07:02.766Z,6.41
2019-03-03T00:08:04.008Z,6.49
2019-03-03T00:09:04.698Z,6.49
2019-03-03T00:10:06.101Z,6.46
2019-03-03T00:11:06.349Z,6.52
2019-03-03T00:12:07.472Z,6.46
2019-03-03T00:13:08.879Z,6.54
2019-03-03T00:14:09.029Z,6.62
2019-03-03T00:15:09.715Z,6.64
2019-03-03T00:16:10.241Z,6.67
2019-03-03T00:17:10.925Z,6.65
2019-03-03T00:18:11.606Z,6.71
2019-03-03T00:19:12.015Z,6.68
2019-03-03T00:20:12.423Z,6.72
2019-03-03T00:21:12.554Z,6.8
2019-03-03T00:22:13.237Z,6.82
2019-03-03T00:23:14.369Z,6.85
2019-03-03T00:24:15.499Z,6.8
2019-03-03T00:25:16.461Z,6.85
2019-03-03T00:26:17.281Z,6.86
2019-03-03T00:27:18.515Z,6.86
2019-03-03T00:28:18.499Z,6.87
2019-03-03T00:29:19.195Z,6.86
2019-03-03T00:30:19.873Z,6.96
2019-03-03T00:31:20.279Z,6.95
2019-03-03T00:32:21.243Z,6.93
2019-03-03T00:33:22.489Z,6.95
2019-03-03T00:34:22.891Z,6.86
2019-03-03T00:35:24.575Z,6.8
2019-03-03T00:36:25.718Z,6.83
2019-03-03T00:37:26.683Z,6.9
2019-03-03T00:38:27.092Z,6.83
2019-03-03T00:39:27.819Z,6.89
2019-03-03T00:40:28.227Z,6.83
2019-03-03T00:41:28.409Z,6.87
2019-03-03T00:42:28.820Z,6.82
2019-03-03T00:43:29.227Z,6.85
2019-03-03T00:44:30.358Z,6.85
2019-03-03T00:45:31.324Z,6.86
2019-03-03T00:46:32.139Z,6.89
2019-03-03T00:47:32.648Z,6.93
2019-03-03T00:48:32.775Z,7.01
2019-03-03T00:49:34.181Z,7
2019-03-03T00:50:35.428Z,6.97
2019-03-03T00:51:35.557Z,6.96
2019-03-03T00:52:36.275Z,6.92
2019-03-03T00:53:36.683Z,6.89
2019-03-03T00:54:37.692Z,6.9
2019-03-03T00:55:38.820Z,6.85
2019-03-03T00:56:39.647Z,6.87
2019-03-03T00:57:40.887Z,6.85
2019-03-03T00:58:41.573Z,6.9
2019-03-03T00:59:42.272Z,6.87
2019-03-03T01:00:42.676Z,6.86
2019-03-03T01:01:44.360Z,6.8
2019-03-03T01:02:44.324Z,6.89
2019-03-03T01:03:45.005Z,6.82
2019-03-03T01:04:46.434Z,6.74
2019-03-03T01:05:47.121Z,6.67
2019-03-03T01:06:48.204Z,6.6
2019-03-03T01:07:48.892Z,6.67
2019-03-03T01:08:49.019Z,6.71
2019-03-03T01:09:50.474Z,6.72
2019-03-03T01:10:51.441Z,6.57
2019-03-03T01:11:52.849Z,6.57
2019-03-03T01:12:53.532Z,6.65
2019-03-03T01:13:56.645Z,6.74
2019-03-03T01:14:55.612Z,6.7
2019-03-03T01:15:56.742Z,6.67
2019-03-03T01:16:56.993Z,6.67
2019-03-03T01:17:58.121Z,6.65
2019-03-03T01:18:59.653Z,6.65
2019-03-03T01:19:59.837Z,6.6
2019-03-03T01:21:00.523Z,6.6
2019-03-03T01:22:01.519Z,6.64
2019-03-03T01:23:04.141Z,6.46
2019-03-03T01:24:05.381Z,6.44
2019-03-03T01:25:05.787Z,6.39
2019-03-03T01:26:06.197Z,6.44
2019-03-03T01:27:06.726Z,6.39
2019-03-03T01:28:07.133Z,6.39
2019-03-03T01:29:08.539Z,6.34
2019-03-03T01:30:08.500Z,6.39
2019-03-03T01:31:08.907Z,6.36
2019-03-03T01:32:10.313Z,6.25
2019-03-03T01:33:10.721Z,6.34
2019-03-03T01:34:11.962Z,6.29
2019-03-03T01:35:12.648Z,6.2
2019-03-03T01:36:13.614Z,6.22
2019-03-03T01:37:15.013Z,6.25
2019-03-03T01:38:15.423Z,6.28
2019-03-03T01:39:15.829Z,6.28
2019-03-03T01:40:16.959Z,6.29
2019-03-03T01:41:18.087Z,6.25
2019-03-03T01:42:19.218Z,6.34
2019-03-03T01:43:19.623Z,6.31
2019-03-03T01:44:20.308Z,6.35
2019-03-03T01:45:21.720Z,6.34
2019-03-03T01:46:22.410Z,6.29
2019-03-03T01:47:23.789Z,6.31
2019-03-03T01:48:24.264Z,6.35
2019-03-03T01:49:25.230Z,6.38
2019-03-03T01:50:25.359Z,6.43
2019-03-03T01:51:26.323Z,6.46
2019-03-03T01:52:26.732Z,6.41
2019-03-03T01:53:28.177Z,6.44
2019-03-03T01:54:28.861Z,6.44
2019-03-03T01:55:29.547Z,6.47
2019-03-03T01:56:30.233Z,6.54
2019-03-03T01:57:30.662Z,6.59
2019-03-03T01:58:31.355Z,6.44
2019-03-03T01:59:33.046Z,6.56
2019-03-03T02:00:33.458Z,6.64
2019-03-03T02:01:33.429Z,6.5
2019-03-03T02:02:34.849Z,6.64
2019-03-03T02:03:35.270Z,6.54
2019-03-03T02:04:36.020Z,6.6
2019-03-03T02:05:36.435Z,6.62
2019-03-03T02:06:38.124Z,6.6
2019-03-03T02:07:38.246Z,6.6
2019-03-03T02:08:39.381Z,6.59
2019-03-03T02:09:40.353Z,6.57
2019-03-03T02:10:41.327Z,6.6
2019-03-03T02:11:42.016Z,6.64
2019-03-03T02:12:42.263Z,6.64
2019-03-03T02:13:43.002Z,6.53
2019-03-03T02:14:43.247Z,6.62
2019-03-03T02:15:43.662Z,6.64
2019-03-03T02:16:44.351Z,6.64
2019-03-03T02:17:45.066Z,6.59
2019-03-03T02:18:46.199Z,6.65
2019-03-03T02:19:46.652Z,6.6
2019-03-03T02:20:47.343Z,6.6
2019-03-03T02:21:48.036Z,6.56
2019-03-03T02:22:48.201Z,6.49
2019-03-03T02:23:48.611Z,6.44
2019-03-03T02:24:49.753Z,6.38
2019-03-03T02:25:50.723Z,6.38
2019-03-03T02:26:51.139Z,6.34
2019-03-03T02:27:51.406Z,6.25
2019-03-03T02:28:52.817Z,6.22
2019-03-03T02:29:52.952Z,6.31
2019-03-03T02:30:53.695Z,6.29
2019-03-03T02:31:54.709Z,6.2
2019-03-03T02:32:55.687Z,6.22
2019-03-03T02:33:56.659Z,6.22
2019-03-03T02:34:57.490Z,6.28
2019-03-03T02:35:58.025Z,6.19
2019-03-03T02:36:58.605Z,6.31
2019-03-03T02:37:59.602Z,6.25
2019-03-03T02:39:00.023Z,6.17
2019-03-03T02:40:01.683Z,6.19
2019-03-03T02:41:01.735Z,6.16
2019-03-03T02:42:02.271Z,6.28
2019-03-03T02:43:03.166Z,6.28
2019-03-03T02:44:03.730Z,6.22
2019-03-03T02:45:04.429Z,6.25
2019-03-03T02:46:05.531Z,6.32
2019-03-03T02:47:06.128Z,6.25
2019-03-03T02:48:06.817Z,6.29
2019-03-03T02:49:07.082Z,6.35
2019-03-03T02:50:08.612Z,6.35
2019-03-03T02:51:09.861Z,6.32
2019-03-03T02:52:09.840Z,6.39
2019-03-03T02:53:10.368Z,6.49
2019-03-03T02:54:10.613Z,6.38
2019-03-03T02:55:10.868Z,6.41
2019-03-03T02:56:11.403Z,6.36
2019-03-03T02:57:12.096Z,6.39
2019-03-03T02:58:13.352Z,6.38
2019-03-03T02:59:13.798Z,6.39
2019-03-03T03:00:15.627Z,6.47
2019-03-03T03:01:15.603Z,6.39
2019-03-03T03:02:17.133Z,6.43
2019-03-03T03:03:17.382Z,6.47
2019-03-03T03:04:17.926Z,6.43
2019-03-03T03:05:18.481Z,6.41
2019-03-03T03:06:19.306Z,6.41
2019-03-03T03:07:19.569Z,6.43
2019-03-03T03:08:20.393Z,6.39
2019-03-03T03:09:20.106Z,6.34
2019-03-03T03:10:21.194Z,6.32
2019-03-03T03:11:21.803Z,6.31
2019-03-03T03:12:23.075Z,6.32
2019-03-03T03:13:24.342Z,6.34
2019-03-03T03:14:26.142Z,6.31
2019-03-03T03:15:27.500Z,6.2
2019-03-03T03:16:28.039Z,6.26
2019-03-03T03:17:28.738Z,6.29
2019-03-03T03:18:29.996Z,6.25
2019-03-03T03:19:30.264Z,6.31
2019-03-03T03:20:31.253Z,6.34
2019-03-03T03:21:32.565Z,6.35
2019-03-03T03:22:33.878Z,6.32
2019-03-03T03:23:33.980Z,6.29
2019-03-03T03:24:34.230Z,6.2
2019-03-03T03:25:34.921Z,6.2
2019-03-03T03:26:35.180Z,6.15
2019-03-03T03:27:36.423Z,6.17
2019-03-03T03:28:36.846Z,6.19
2019-03-03T03:29:37.828Z,6.2
2019-03-03T03:30:39.411Z,6.16
2019-03-03T03:31:39.474Z,6.25
2019-03-03T03:32:40.046Z,6.25
2019-03-03T03:33:40.882Z,6.2
2019-03-03T03:34:41.712Z,6.19
2019-03-03T03:35:42.637Z,6.17
2019-03-03T03:36:43.638Z,6.09
2019-03-03T03:37:44.619Z,6.2
2019-03-03T03:38:45.879Z,6.2
2019-03-03T03:39:46.145Z,6.2
2019-03-03T03:40:46.557Z,6.15
2019-03-03T03:41:47.534Z,6.13
2019-03-03T03:42:48.516Z,6.12
2019-03-03T03:43:49.796Z,6.2
2019-03-03T03:44:50.343Z,6.15
2019-03-03T03:45:51.074Z,6.22
2019-03-03T03:46:52.162Z,6.2
2019-03-03T03:47:52.138Z,6.13
2019-03-03T03:48:52.548Z,6.25
2019-03-03T03:49:53.447Z,6.26
2019-03-03T03:50:53.216Z,6.32
2019-03-03T03:51:56.334Z,6.31
2019-03-03T03:52:57.147Z,6.32
2019-03-03T03:53:57.419Z,6.38
2019-03-03T03:54:57.722Z,6.36
2019-03-03T03:55:58.719Z,6.36
2019-03-03T03:57:00.244Z,6.36
2019-03-03T03:58:00.499Z,6.34
2019-03-03T03:59:01.418Z,6.34
2019-03-03T04:00:01.959Z,6.28
2019-03-03T04:01:02.777Z,6.35
2019-03-03T04:02:03.440Z,6.36
2019-03-03T04:03:04.017Z,6.38
2019-03-03T04:04:04.538Z,6.35
2019-03-03T04:05:05.072Z,6.32
2019-03-03T04:06:06.600Z,6.36
2019-03-03T04:07:06.576Z,6.28
2019-03-03T04:08:07.602Z,6.2
2019-03-03T04:09:08.169Z,6.31
2019-03-03T04:10:08.705Z,6.2
2019-03-03T04:11:09.980Z,6.2
2019-03-03T04:12:11.271Z,6.22
2019-03-03T04:13:11.699Z,6.25
2019-03-03T04:14:13.113Z,6.19
2019-03-03T04:15:13.911Z,6.34
2019-03-03T04:16:15.164Z,6.34
2019-03-03T04:17:15.964Z,6.2
2019-03-03T04:18:17.212Z,6.19
2019-03-03T04:19:17.204Z,6.01
2019-03-03T04:20:17.729Z,6.02
2019-03-03T04:21:18.279Z,6.06
2019-03-03T04:22:18.817Z,6.06
2019-03-03T04:23:19.383Z,5.92
2019-03-03T04:24:20.458Z,5.99
2019-03-03T04:25:21.159Z,5.91
2019-03-03T04:26:21.871Z,5.91
2019-03-03T04:27:22.394Z,5.88
2019-03-03T04:28:23.133Z,5.92
2019-03-03T04:29:24.114Z,5.77
2019-03-03T04:30:25.380Z,5.84
2019-03-03T04:31:25.931Z,5.73
2019-03-03T04:32:26.908Z,5.77
2019-03-03T04:33:27.875Z,5.77
2019-03-03T04:34:27.853Z,5.81
2019-03-03T04:35:28.545Z,5.76
2019-03-03T04:36:29.513Z,5.72
2019-03-03T04:37:29.759Z,5.54
2019-03-03T04:38:30.763Z,5.58
2019-03-03T04:39:31.305Z,5.43
2019-03-03T04:40:31.438Z,5.58
2019-03-03T04:41:33.130Z,5.56
2019-03-03T04:42:33.265Z,5.62
2019-03-03T04:43:34.403Z,5.54
2019-03-03T04:44:36.133Z,5.62
2019-03-03T04:45:36.546Z,5.56
2019-03-03T04:46:37.517Z,5.52
2019-03-03T04:47:38.251Z,5.54
2019-03-03T04:48:38.664Z,5.49
2019-03-03T04:49:39.358Z,5.49
2019-03-03T04:50:39.766Z,5.44
2019-03-03T04:51:40.184Z,5.44
2019-03-03T04:52:40.869Z,5.56
2019-03-03T04:53:41.563Z,5.51
2019-03-03T04:54:41.972Z,5.67
2019-03-03T04:55:42.492Z,5.67
2019-03-03T04:56:42.783Z,5.54
2019-03-03T04:57:43.198Z,5.7
2019-03-03T04:58:44.463Z,5.74
2019-03-03T04:59:44.344Z,5.7
2019-03-03T05:00:44.593Z,5.69
2019-03-03T05:01:46.006Z,5.77
2019-03-03T05:02:46.425Z,5.79
2019-03-03T05:03:46.836Z,5.7
2019-03-03T05:04:47.799Z,5.72
2019-03-03T05:05:48.213Z,5.81
2019-03-03T05:06:49.179Z,5.69
2019-03-03T05:07:49.593Z,5.76
2019-03-03T05:08:50.003Z,5.69
2019-03-03T05:09:50.543Z,5.73
2019-03-03T05:10:50.958Z,5.7
2019-03-03T05:11:51.646Z,5.65
2019-03-03T05:12:52.656Z,5.79
2019-03-03T05:13:53.622Z,5.67
2019-03-03T05:14:54.318Z,5.7
2019-03-03T05:15:55.005Z,5.59
2019-03-03T05:16:55.418Z,5.61
2019-03-03T05:17:56.686Z,5.56
2019-03-03T05:18:56.820Z,5.55
2019-03-03T05:19:57.500Z,5.61
2019-03-03T05:20:57.912Z,5.59
2019-03-03T05:21:58.609Z,5.47
2019-03-03T05:22:59.295Z,5.56
2019-03-03T05:23:59.704Z,5.56
2019-03-03T05:25:00.245Z,5.49
2019-03-03T05:26:01.566Z,5.52
2019-03-03T05:27:02.257Z,5.44
2019-03-03T05:28:03.795Z,5.44
2019-03-03T05:29:04.481Z,5.38
2019-03-03T05:29:48.926Z,5.38
2019-03-03T05:30:49.891Z,5.37
2019-03-03T05:31:50.304Z,5.44
2019-03-03T05:32:51.275Z,5.47
2019-03-03T05:33:51.966Z,5.44
2019-03-03T05:34:52.730Z,5.47
2019-03-03T05:35:53.525Z,5.44
2019-03-03T05:36:54.216Z,5.41
2019-03-03T05:37:54.351Z,5.47
2019-03-03T05:38:55.489Z,5.4
2019-03-03T05:39:56.462Z,5.28
2019-03-03T05:40:57.132Z,5.23
2019-03-03T05:41:58.132Z,5.22
2019-03-03T05:42:58.820Z,5.23
2019-03-03T05:43:59.515Z,5.13
2019-03-03T05:44:59.932Z,4.98
2019-03-03T05:46:00.626Z,4.95
2019-03-03T05:47:01.042Z,5.04
2019-03-03T05:48:01.788Z,4.98
2019-03-03T05:49:02.487Z,4.98
2019-03-03T05:50:03.457Z,5
2019-03-03T05:51:04.433Z,5
2019-03-03T05:52:04.856Z,4.95
2019-03-03T05:53:05.548Z,5.05
2019-03-03T05:54:05.967Z,5.07
2019-03-03T05:55:06.667Z,5.05
2019-03-03T05:56:07.803Z,5.07
2019-03-03T05:57:08.771Z,5.13
2019-03-03T05:58:08.912Z,5.05
2019-03-03T05:59:10.047Z,5.1
2019-03-03T06:00:10.764Z,5.08
2019-03-03T06:01:11.088Z,5.1
2019-03-03T06:02:11.500Z,5.12
2019-03-03T06:03:11.912Z,5.18
2019-03-03T06:04:12.885Z,5.16
2019-03-03T06:05:13.038Z,5.2
2019-03-03T06:06:13.731Z,5.18
2019-03-03T06:07:14.699Z,5.29
2019-03-03T06:08:14.835Z,5.29
2019-03-03T06:09:15.528Z,5.26
2019-03-03T06:10:15.499Z,5.28
2019-03-03T06:11:16.661Z,5.23
2019-03-03T06:12:17.080Z,5.28
2019-03-03T06:13:17.336Z,5.33
2019-03-03T06:14:18.469Z,5.31
2019-03-03T06:15:19.161Z,5.37
2019-03-03T06:16:19.575Z,5.36
2019-03-03T06:17:19.994Z,5.26
2019-03-03T06:18:21.131Z,5.33
2019-03-03T06:19:21.557Z,5.28
2019-03-03T06:20:22.805Z,5.37
2019-03-03T06:21:23.359Z,5.4
2019-03-03T06:22:23.777Z,5.54
2019-03-03T06:23:24.238Z,5.58
2019-03-03T06:24:25.780Z,5.7
2019-03-03T06:25:27.057Z,5.83
2019-03-03T06:26:27.152Z,5.79
2019-03-03T06:27:27.620Z,5.91
2019-03-03T06:28:28.317Z,5.91
2019-03-03T06:29:29.732Z,5.95
2019-03-03T06:30:29.869Z,5.94
2019-03-03T06:31:30.586Z,5.97
2019-03-03T06:32:31.284Z,6.09
2019-03-03T06:33:31.700Z,6.25
2019-03-03T06:34:32.721Z,6.36
2019-03-03T06:35:33.699Z,6.46
2019-03-03T06:36:34.403Z,6.54
2019-03-03T06:37:35.098Z,6.64
2019-03-03T06:38:35.238Z,6.71
2019-03-03T06:39:36.210Z,6.7
2019-03-03T06:40:36.393Z,6.83
2019-03-03T06:41:37.780Z,6.89
2019-03-03T06:42:38.203Z,6.96
2019-03-03T06:43:38.950Z,7.08
2019-03-03T06:44:39.383Z,7.36
2019-03-03T06:45:40.084Z,7.61
2019-03-03T06:46:40.789Z,7.78
2019-03-03T06:47:42.039Z,7.9
2019-03-03T06:48:42.458Z,7.9
2019-03-03T06:49:43.880Z,7.84
2019-03-03T06:50:44.576Z,7.88
2019-03-03T06:51:45.127Z,8.11
2019-03-03T06:52:46.103Z,8.23
2019-03-03T06:53:46.525Z,8.44
2019-03-03T06:54:47.272Z,8.35
2019-03-03T06:55:47.698Z,8.5
2019-03-03T06:56:48.400Z,8.57
2019-03-03T06:57:49.425Z,8.71
2019-03-03T06:58:50.679Z,8.78
2019-03-03T06:59:51.653Z,8.79
2019-03-03T07:00:52.072Z,8.78
2019-03-03T07:01:53.198Z,8.57
2019-03-03T07:02:53.620Z,8.52
2019-03-03T07:03:54.597Z,8.5
2019-03-03T07:04:55.297Z,8.42
2019-03-03T07:05:56.014Z,8.11
2019-03-03T07:06:56.482Z,7.93
2019-03-03T07:07:57.458Z,7.69
2019-03-03T07:08:58.163Z,7.7
2019-03-03T07:09:58.862Z,7.58
2019-03-03T07:10:59.958Z,7.56
2019-03-03T07:12:00.343Z,7.58
2019-03-03T07:13:02.043Z,7.64
2019-03-03T07:14:02.020Z,7.78
2019-03-03T07:15:03.446Z,7.9
2019-03-03T07:16:04.702Z,8.26
2019-03-03T07:17:04.679Z,8.57
2019-03-03T07:18:05.148Z,8.93
2019-03-03T07:19:05.844Z,9.31
2019-03-03T07:20:06.868Z,9.56
2019-03-03T07:21:07.288Z,9.94
2019-03-03T07:22:08.952Z,10.17
2019-03-03T07:23:09.374Z,10.41
2019-03-03T07:24:09.804Z,10.34
2019-03-03T07:25:11.505Z,10.34
2019-03-03T07:26:12.214Z,10.27
2019-03-03T07:27:12.360Z,10.1
2019-03-03T07:28:12.784Z,9.72
2019-03-03T07:29:14.207Z,9.45
2019-03-03T07:30:15.181Z,9.12
2019-03-03T07:31:15.604Z,8.97
2019-03-03T07:32:15.729Z,8.66
2019-03-03T07:33:16.423Z,8.6
2019-03-03T07:34:17.564Z,8.63
2019-03-03T07:35:18.883Z,8.53
2019-03-03T07:36:19.302Z,8.56
2019-03-03T07:37:20.033Z,8.5
2019-03-03T07:38:20.506Z,8.6
2019-03-03T07:39:21.037Z,8.78
2019-03-03T07:40:22.181Z,9.02
2019-03-03T07:41:22.880Z,9.05
2019-03-03T07:42:24.288Z,9.19
2019-03-03T07:43:24.986Z,9.3
2019-03-03T07:44:25.484Z,9.49
2019-03-03T07:45:25.623Z,9.63
2019-03-03T07:46:26.636Z,9.54
2019-03-03T07:47:26.779Z,9.48
2019-03-03T07:48:28.201Z,9.55
2019-03-03T07:49:28.903Z,9.55
2019-03-03T07:50:30.048Z,9.62
2019-03-03T07:51:30.746Z,9.94
2019-03-03T07:52:33.515Z,10.03
2019-03-03T07:53:32.214Z,10.07
2019-03-03T07:54:32.918Z,10.21
2019-03-03T07:55:33.381Z,10.68
2019-03-03T07:56:33.805Z,10.9
2019-03-03T07:57:35.226Z,11.41
2019-03-03T07:58:35.379Z,11.76
2019-03-03T07:59:36.361Z,12.26
2019-03-03T08:00:37.069Z,12.57
2019-03-03T08:01:38.327Z,12.57
2019-03-03T08:02:38.887Z,13.03
2019-03-03T08:03:39.316Z,13.23
2019-03-03T08:04:39.745Z,13.61
2019-03-03T08:05:40.728Z,13.75
2019-03-03T08:06:41.471Z,14.25
2019-03-03T08:07:41.627Z,14.37
2019-03-03T08:08:42.889Z,14.73
2019-03-03T08:09:43.878Z,15.08
2019-03-03T08:10:44.308Z,15
2019-03-03T08:11:45.016Z,14.89
2019-03-03T08:12:45.915Z,14.87
2019-03-03T08:13:46.622Z,15.11
2019-03-03T08:14:46.778Z,15.29
2019-03-03T08:15:47.761Z,15.14
2019-03-03T08:16:48.187Z,14.58
2019-03-03T08:17:49.181Z,14.37
2019-03-03T08:18:49.889Z,14.33
2019-03-03T08:19:50.315Z,14.34
2019-03-03T08:20:50.740Z,14.48
2019-03-03T08:21:51.453Z,14.33
2019-03-03T08:22:52.620Z,14.36
2019-03-03T08:23:53.071Z,14.41
2019-03-03T08:24:53.796Z,14.44
2019-03-03T08:25:54.503Z,14.59
2019-03-03T08:26:55.650Z,14.56
2019-03-03T08:27:56.089Z,14.53
2019-03-03T08:28:56.798Z,14.68
2019-03-03T08:29:58.232Z,14.53
2019-03-03T08:30:58.942Z,14.81
2019-03-03T08:31:59.372Z,14.87
2019-03-03T08:33:00.214Z,14.86
2019-03-03T08:34:00.643Z,15.14
2019-03-03T08:35:01.165Z,15.29
2019-03-03T08:36:02.168Z,15.43
2019-03-03T08:37:02.928Z,15.32
2019-03-03T08:38:04.190Z,15.12
2019-03-03T08:39:04.896Z,15.22
2019-03-03T08:40:05.088Z,15.32
2019-03-03T08:41:05.796Z,15.3
2019-03-03T08:42:06.946Z,15.29
2019-03-03T08:43:07.807Z,14.96
2019-03-03T08:44:08.011Z,14.37
2019-03-03T08:45:08.715Z,13.87
2019-03-03T08:46:09.695Z,13.75
2019-03-03T08:47:10.681Z,13.75
2019-03-03T08:48:11.111Z,14.04
2019-03-03T08:49:12.260Z,14.15
2019-03-03T08:50:13.530Z,14.31
2019-03-03T08:51:13.956Z,14.55
2019-03-03T08:52:15.219Z,14.77
2019-03-03T08:53:16.340Z,15.08
2019-03-03T08:54:17.325Z,15.14
2019-03-03T08:55:18.030Z,15.27
2019-03-03T08:56:18.186Z,15.51
2019-03-03T08:57:19.167Z,15.85
2019-03-03T08:58:19.597Z,16.28
2019-03-03T08:59:20.306Z,16.79
2019-03-03T09:00:20.748Z,17.6
2019-03-03T09:01:21.456Z,18.02
2019-03-03T09:02:22.448Z,18.19
2019-03-03T09:03:22.802Z,18.37
2019-03-03T09:04:23.577Z,18.88
2019-03-03T09:05:24.575Z,18.98
2019-03-03T09:06:25.280Z,18.61
2019-03-03T09:07:26.437Z,18.15
2019-03-03T09:08:27.890Z,18.03
2019-03-03T09:09:28.315Z,17.98
2019-03-03T09:10:29.467Z,17.9
2019-03-03T09:11:30.456Z,17.93
2019-03-03T09:12:31.890Z,18.02
2019-03-03T09:13:33.295Z,17.98
2019-03-03T09:14:34.013Z,18
2019-03-03T09:15:34.449Z,17.86
2019-03-03T09:16:35.603Z,18.06
2019-03-03T09:17:36.313Z,18.05
2019-03-03T09:18:36.854Z,17.5
2019-03-03T09:19:36.840Z,17.49
2019-03-03T09:20:37.996Z,17.07
2019-03-03T09:21:38.702Z,16.8
2019-03-03T09:22:39.133Z,16.65
2019-03-03T09:23:40.108Z,16.61
2019-03-03T09:24:41.376Z,16.29
2019-03-03T09:25:41.807Z,16.03
2019-03-03T09:26:42.274Z,15.94
2019-03-03T09:27:42.707Z,16.17
2019-03-03T09:28:44.135Z,16.41
2019-03-03T09:29:44.837Z,16.82
2019-03-03T09:30:44.993Z,16.69
2019-03-03T09:31:46.143Z,16.4
2019-03-03T09:32:47.128Z,16.47
2019-03-03T09:33:49.979Z,16.72
2019-03-03T09:34:48.981Z,17.39
2019-03-03T09:35:49.965Z,17.94
2019-03-03T09:36:50.957Z,18.28
2019-03-03T09:37:51.117Z,18.49
2019-03-03T09:38:52.134Z,18.55
2019-03-03T09:39:52.845Z,18.6
2019-03-03T09:40:53.301Z,18.45
2019-03-03T09:41:53.730Z,17.97
2019-03-03T09:42:55.162Z,18.05
2019-03-03T09:43:56.286Z,18.18
2019-03-03T09:44:56.716Z,18.46
2019-03-03T09:45:57.149Z,18.43
2019-03-03T09:46:58.591Z,18.31
2019-03-03T09:47:59.303Z,18.36
2019-03-03T09:48:59.777Z,18.05
2019-03-03T09:49:59.936Z,17.63
2019-03-03T09:51:01.399Z,17.17
2019-03-03T09:52:02.114Z,17.41
2019-03-03T09:53:03.103Z,17.8
2019-03-03T09:54:03.673Z,17.97
2019-03-03T09:55:04.663Z,18.27
2019-03-03T09:56:05.381Z,18.03
2019-03-03T09:57:06.106Z,17.73
2019-03-03T09:58:06.538Z,17.34
2019-03-03T09:59:07.694Z,17.3
2019-03-03T10:00:08.125Z,16.98
2019-03-03T10:01:08.835Z,16.65
2019-03-03T10:02:09.543Z,16.55
2019-03-03T10:03:10.979Z,16.72
2019-03-03T10:04:11.562Z,16.61
2019-03-03T10:05:12.712Z,16.68
2019-03-03T10:06:14.698Z,16.82
2019-03-03T10:07:15.683Z,16.95
2019-03-03T10:08:15.390Z,16.91
2019-03-03T10:09:16.382Z,16.95
2019-03-03T10:10:16.531Z,17.22
2019-03-03T10:11:17.238Z,17.39
2019-03-03T10:12:18.391Z,17.63
2019-03-03T10:13:19.116Z,17.72
2019-03-03T10:14:20.515Z,17.68
2019-03-03T10:15:21.780Z,17.66
2019-03-03T10:16:22.494Z,17.95
2019-03-03T10:17:22.917Z,18.21
2019-03-03T10:18:24.466Z,18.49
2019-03-03T10:19:24.898Z,18.89
2019-03-03T10:20:25.052Z,19.16
2019-03-03T10:21:26.040Z,19.07
2019-03-03T10:22:26.026Z,19.26
2019-03-03T10:23:27.294Z,19.23
2019-03-03T10:24:28.277Z,19.15
2019-03-03T10:25:29.266Z,18.96
2019-03-03T10:26:29.421Z,19.41
2019-03-03T10:27:30.133Z,19.66
2019-03-03T10:28:30.399Z,19.64
2019-03-03T10:29:31.114Z,20.21
2019-03-03T10:30:32.823Z,20.36
2019-03-03T10:31:32.983Z,20.3
2019-03-03T10:32:33.690Z,20.24
2019-03-03T10:33:35.153Z,20.02
2019-03-03T10:34:36.004Z,19.84
2019-03-03T10:35:36.440Z,20.03
2019-03-03T10:36:36.926Z,20.3
2019-03-03T10:37:37.646Z,20.66
2019-03-03T10:38:38.937Z,20.96
2019-03-03T10:39:39.647Z,21.15
2019-03-03T10:40:40.634Z,21.07
2019-03-03T10:41:41.635Z,21.29
2019-03-03T10:42:42.350Z,21.66
2019-03-03T10:43:43.620Z,21.81
2019-03-03T10:44:44.472Z,21.33
2019-03-03T10:45:45.741Z,20.9
2019-03-03T10:46:46.182Z,21.03
2019-03-03T10:47:46.341Z,20.75
2019-03-03T10:48:46.775Z,19.84
2019-03-03T10:49:47.978Z,20.07
2019-03-03T10:50:48.413Z,19.93
2019-03-03T10:51:49.681Z,19.77
2019-03-03T10:52:50.229Z,19.63
2019-03-03T10:53:50.403Z,19.81
2019-03-03T10:54:51.544Z,19.96
2019-03-03T10:55:52.252Z,20.26
2019-03-03T10:56:53.965Z,20.4
2019-03-03T10:57:54.398Z,20.39
2019-03-03T10:58:54.830Z,19.97
2019-03-03T10:59:56.524Z,20.1
2019-03-03T11:00:57.238Z,20.33
2019-03-03T11:01:57.991Z,20.53
2019-03-03T11:02:58.988Z,20.58
2019-03-03T11:03:58.930Z,20.5
2019-03-03T11:04:59.802Z,19.94
2019-03-03T11:06:00.575Z,19.67
2019-03-03T11:07:01.573Z,19.37
2019-03-03T11:08:01.571Z,19.04
2019-03-03T11:09:02.560Z,18.85
2019-03-03T11:10:03.278Z,18.68
2019-03-03T11:11:04.292Z,18.6
2019-03-03T11:12:04.728Z,18.67
2019-03-03T11:13:04.879Z,18.78
2019-03-03T11:14:06.744Z,18.92
2019-03-03T11:15:06.653Z,18.79
2019-03-03T11:15:19.806Z,18.85
2019-03-03T11:16:19.724Z,19
2019-03-03T11:17:20.152Z,19.34
2019-03-03T11:18:21.139Z,19.37
2019-03-03T11:19:21.851Z,18.96
2019-03-03T11:20:23.008Z,19
2019-03-03T11:21:24.716Z,18.97
2019-03-03T11:22:24.872Z,18.7
2019-03-03T11:23:26.308Z,18.52
2019-03-03T11:24:27.019Z,18.18
2019-03-03T11:25:27.741Z,18.08
2019-03-03T11:26:27.870Z,18.16
2019-03-03T11:27:28.901Z,18.31
2019-03-03T11:28:29.609Z,18.55
2019-03-03T11:29:30.601Z,18.68
2019-03-03T11:30:31.314Z,18.7
2019-03-03T11:31:32.076Z,18.74
2019-03-03T11:32:32.789Z,18.82
2019-03-03T11:33:34.000Z,18.94
2019-03-03T11:34:35.050Z,18.7
2019-03-03T11:35:35.762Z,18.48
2019-03-03T11:36:36.334Z,18.55
2019-03-03T11:37:36.491Z,18.66
2019-03-03T11:38:37.479Z,18.71
2019-03-03T11:39:37.638Z,18.91
2019-03-03T11:40:39.352Z,19.15
2019-03-03T11:41:39.893Z,18.92
2019-03-03T11:42:40.325Z,18.91
2019-03-03T11:43:41.034Z,18.74
2019-03-03T11:44:41.742Z,18.57
2019-03-03T11:45:42.176Z,18.41
2019-03-03T11:46:42.941Z,18.26
2019-03-03T11:47:43.650Z,17.9
2019-03-03T11:48:43.801Z,17.53
2019-03-03T11:49:45.260Z,17.27
2019-03-03T11:50:46.837Z,17.13
2019-03-03T11:51:47.265Z,17.1
2019-03-03T11:52:47.696Z,16.97
2019-03-03T11:53:48.174Z,16.94
2019-03-03T11:54:49.162Z,16.94
2019-03-03T11:55:50.147Z,16.98
2019-03-03T11:56:50.710Z,16.92
2019-03-03T11:57:51.143Z,17.04
2019-03-03T11:58:52.576Z,17.01
2019-03-03T11:59:53.002Z,17.27
2019-03-03T12:00:53.437Z,17.47
2019-03-03T12:01:54.875Z,17.52
2019-03-03T12:02:55.583Z,17.5
2019-03-03T12:03:56.017Z,17.37
2019-03-03T12:04:57.173Z,17.27
2019-03-03T12:05:58.326Z,17.23
2019-03-03T12:06:59.007Z,17.13
2019-03-03T12:07:59.272Z,17.12
2019-03-03T12:09:00.092Z,17.2
2019-03-03T12:10:00.298Z,17.22
2019-03-03T12:11:01.573Z,17.16
2019-03-03T12:12:02.864Z,17.22
2019-03-03T12:13:03.291Z,17.31
2019-03-03T12:14:04.339Z,17.3
2019-03-03T12:15:05.320Z,17.3
2019-03-03T12:16:05.473Z,17.39
2019-03-03T12:17:06.349Z,17.37
2019-03-03T12:18:07.338Z,17.37
2019-03-03T12:19:07.501Z,17.44
2019-03-03T12:20:08.485Z,17.68
2019-03-03T12:21:09.210Z,17.8
2019-03-03T12:22:09.655Z,17.73
2019-03-03T12:23:11.088Z,17.8
2019-03-03T12:24:11.516Z,17.71
2019-03-03T12:25:11.947Z,17.71
2019-03-03T12:26:13.936Z,17.53
2019-03-03T12:27:14.068Z,17.47
2019-03-03T12:28:14.331Z,17.42
2019-03-03T12:29:15.487Z,17.6
2019-03-03T12:30:16.919Z,17.59
2019-03-03T12:31:17.185Z,17.68
2019-03-03T12:32:17.617Z,17.52
2019-03-03T12:33:18.045Z,17.38
2019-03-03T12:34:19.043Z,17.04
2019-03-03T12:35:20.473Z,17.1
2019-03-03T12:36:21.183Z,17.1
2019-03-03T12:37:21.437Z,17.12
2019-03-03T12:38:21.630Z,17.17
2019-03-03T12:39:22.910Z,17.09
2019-03-03T12:40:23.340Z,17.2
2019-03-03T12:41:24.059Z,17.22
2019-03-03T12:42:25.051Z,17.38
2019-03-03T12:43:25.484Z,17.52
2019-03-03T12:44:26.645Z,17.5
2019-03-03T12:45:27.352Z,17.59
2019-03-03T12:46:27.783Z,17.66
2019-03-03T12:47:28.921Z,17.78
2019-03-03T12:48:29.905Z,17.94
2019-03-03T12:49:30.615Z,17.98
2019-03-03T12:50:31.879Z,17.97
2019-03-03T12:51:32.029Z,17.97
2019-03-03T12:52:32.750Z,18.18
2019-03-03T12:53:33.453Z,18.21
2019-03-03T12:54:34.163Z,18.19
2019-03-03T12:55:35.152Z,18.16
2019-03-03T12:56:35.582Z,18.31
2019-03-03T12:57:37.068Z,18.28
2019-03-03T12:58:37.778Z,18.39
2019-03-03T12:59:38.211Z,18.55
2019-03-03T13:00:38.656Z,18.71
2019-03-03T13:01:39.399Z,18.6
2019-03-03T13:02:40.392Z,18.61
2019-03-03T13:03:41.820Z,18.66
2019-03-03T13:04:42.535Z,18.53
2019-03-03T13:05:42.961Z,18.49
2019-03-03T13:06:43.961Z,18.48
2019-03-03T13:07:44.381Z,18.36
2019-03-03T13:08:45.393Z,18.46
2019-03-03T13:09:46.108Z,18.63
2019-03-03T13:10:47.373Z,18.45
2019-03-03T13:11:47.094Z,18.49
2019-03-03T13:12:48.243Z,18.26
2019-03-03T13:13:49.283Z,18.27
2019-03-03T13:14:49.989Z,18.18
2019-03-03T13:15:51.709Z,18.15
2019-03-03T13:16:52.422Z,18.19
2019-03-03T13:17:53.825Z,18.27
2019-03-03T13:18:53.536Z,18.41
2019-03-03T13:19:54.244Z,18.28
2019-03-03T13:20:54.955Z,18.33